Novi, MI (48375)

2:04 PM EDT on April 18, 2015 (GMT -0400)
Whispering Meadows - S of 9, E of MB | | Change Station
CLOSE
Current Station
Personal Weather Station
Location: Novi, MI
Elevation: 853 ft
Nearby Weather Stations

Elev 853 ft 42.45 °N, 83.45 °W | Updated 3 minutes ago

Clear
Clear
72.9 °F
Feels Like 77 °F
N
3.0
Wind Variable Wind from North
Gusts 4.0 mph

Today
High -- | Low -- °F
--% Chance of Precip.
Yesterday
High -- | Low -- °F
Precip. -- in
6:48 AM 8:18 PM
Waning Crescent, 0% visible
Pressure 30.09 in
Visibility 10.0 miles
Clouds Scattered Clouds 20000 ft
Heat Index 77 °F
Dew Point 40 °F
Humidity 31%
Rainfall 0.00 in
Snow Depth Not available.
UV 7 out of 12
Pollen 11.70 out of 12
Air Quality Not available.
Flu Activity Regional
METAR KPTK 181753Z 02012KT 10SM SCT200 20/02 A3009 RMK AO2 SLP190 T02000017 10211 20122 51007 $

More Conditions Fewer Conditions

Pressure 30.09 in
Visibility 10.0 miles
Clouds Scattered Clouds 20000 ft
Heat Index 77 °F
Dew Point 40 °F
Humidity 31%
Rainfall 0.00 in
Snow Depth Not available.
UV 7 out of 12
Pollen 11.70 out of 12
Air Quality Not available.
Flu Activity Regional
METAR KPTK 181753Z 02012KT 10SM SCT200 20/02 A3009 RMK AO2 SLP190 T02000017 10211 20122 51007 $

More Conditions Fewer Conditions

10-Day Weather Forecast

Almanac

Astronomy

Apr. 18, 2015 Rise Set
Actual Time
Civil Twilight
Nautical Twilight
Astronomical Twilight
Moon
Length of Visible Light
Length of Day
Tomorrow will be .
, % of the Moon is Illuminated

Today's Extremes

State Highs State Lows

Community

WunderPhotos

Upload Photos

1,814,472 photos uploaded!

WunderBlogs® & News

Nearby

Air Quality

  Air Quality AQ Index Pollutant
Not available.

Snow Depth

Station Depth Elevation

Earthquake Activity

City Distance Mag. Time & Date
Minimum magnitude displayed is 2.5.

Coastal Water Temperatures

Place Temperature

Stations

Nearby Weather Stations

Station Location Temp. Windchill Dew Point Humidity Wind Precip. Elev Updated Type